Time;durP1;ratioP1;P1;durP2;ratioP2;P2;SDS_P1;SDS_P2;PMS_P1;PMS_P2;Temp;Humidity;BMP_temperature;BMP_pressure;BME280_temperature;BME280_humidity;BME280_pressure;Samples;Min_cycle;Max_cycle;Signal;HPM_P1;HPM_P2
2021/04/02 00:00:25;;;;;;;2.08;0.63;;;9.10;68.20;;;;;;3568595;40;20209;-58
2021/04/02 00:02:51;;;;;;;1.13;0.73;;;9.10;68.50;;;;;;3567922;40;20080;-58
2021/04/02 00:05:18;;;;;;;1.45;0.40;;;9.10;68.10;;;;;;3567943;40;20053;-58
2021/04/02 00:07:44;;;;;;;0.93;0.50;;;9.10;67.90;;;;;;3568951;40;20061;-58
2021/04/02 00:10:35;;;;;;;3.45;0.50;;;9.10;67.60;;;;;;3568866;40;20497;-58
2021/04/02 00:13:00;;;;;;;2.72;0.88;;;9.10;67.90;;;;;;3566518;40;20053;-58
2021/04/02 00:15:26;;;;;;;2.17;0.60;;;9.00;67.80;;;;;;3568430;40;20136;-58
2021/04/02 00:17:52;;;;;;;1.17;0.60;;;9.10;67.80;;;;;;3567888;40;20780;-58
2021/04/02 00:20:19;;;;;;;1.75;0.73;;;9.10;67.60;;;;;;3568934;40;20104;-58
2021/04/02 00:22:45;;;;;;;0.95;0.47;;;9.10;67.70;;;;;;3568519;40;20163;-58
2021/04/02 00:25:13;;;;;;;2.08;0.70;;;9.10;67.60;;;;;;3570781;40;20061;-57
2021/04/02 00:27:40;;;;;;;1.92;0.60;;;9.10;68.00;;;;;;3572217;40;20057;-58
2021/04/02 00:30:15;;;;;;;1.55;0.43;;;9.20;67.50;;;;;;3571312;40;20061;-58
2021/04/02 00:32:42;;;;;;;2.10;0.65;;;9.10;66.80;;;;;;3571068;40;20096;-58
2021/04/02 00:35:09;;;;;;;3.17;0.70;;;9.10;66.90;;;;;;3571492;40;20357;-58
2021/04/02 00:37:35;;;;;;;1.83;0.82;;;9.10;67.50;;;;;;3571677;40;20096;-58
2021/04/02 00:40:00;;;;;;;1.45;0.52;;;9.00;66.40;;;;;;3571472;40;20152;-58
2021/04/02 00:42:26;;;;;;;0.63;0.45;;;8.90;67.70;;;;;;3570257;40;20173;-58
2021/04/02 00:44:52;;;;;;;2.17;0.65;;;8.90;67.80;;;;;;3571184;40;20099;-58
2021/04/02 00:47:18;;;;;;;1.25;0.60;;;8.90;67.80;;;;;;3568930;40;20065;-58
2021/04/02 00:49:44;;;;;;;1.77;0.80;;;8.90;67.20;;;;;;3570645;40;20049;-58
2021/04/02 00:52:10;;;;;;;1.08;0.43;;;9.00;67.00;;;;;;3568336;40;20085;-58
2021/04/02 00:54:35;;;;;;;1.85;0.70;;;9.00;66.40;;;;;;3566067;40;20064;-58
2021/04/02 00:57:02;;;;;;;1.70;0.70;;;8.90;66.60;;;;;;3567103;40;20084;-58
2021/04/02 00:59:28;;;;;;;3.17;0.70;;;8.90;65.90;;;;;;3565904;40;20069;-58
2021/04/02 01:01:54;;;;;;;2.78;0.50;;;8.80;66.60;;;;;;3567347;40;20069;-58
2021/04/02 01:04:21;;;;;;;4.07;0.60;;;8.80;66.50;;;;;;3568790;40;20053;-58
2021/04/02 01:06:47;;;;;;;3.80;0.90;;;8.70;66.20;;;;;;3568841;40;20057;-58
2021/04/02 01:09:13;;;;;;;2.35;0.75;;;8.70;67.00;;;;;;3572559;40;20072;-58
2021/04/02 01:11:39;;;;;;;2.92;0.50;;;8.70;66.80;;;;;;3568409;40;20072;-58
2021/04/02 01:14:06;;;;;;;1.77;0.73;;;8.60;67.10;;;;;;3568780;40;20077;-58
2021/04/02 01:16:34;;;;;;;1.88;0.80;;;8.60;67.60;;;;;;3569389;40;20369;-58
2021/04/02 01:19:10;;;;;;;0.88;0.57;;;8.60;67.60;;;;;;3566741;40;20063;-58
2021/04/02 01:21:42;;;;;;;2.67;0.60;;;8.60;67.60;;;;;;3570545;40;20448;-58
2021/04/02 01:24:20;;;;;;;1.50;0.65;;;8.50;68.10;;;;;;3571596;40;20171;-58
2021/04/02 01:26:58;;;;;;;4.68;0.98;;;8.50;68.20;;;;;;3568424;40;20400;-58
2021/04/02 01:29:35;;;;;;;3.10;0.82;;;8.50;67.70;;;;;;3572766;40;20057;-58
2021/04/02 01:32:02;;;;;;;1.88;0.68;;;8.40;67.70;;;;;;3572508;40;20069;-58
2021/04/02 01:34:37;;;;;;;1.25;0.95;;;8.40;68.00;;;;;;3572327;40;20057;-58
2021/04/02 01:37:11;;;;;;;1.85;0.95;;;8.30;67.50;;;;;;3572727;40;20092;-58
2021/04/02 01:39:41;;;;;;;2.03;0.95;;;8.20;68.60;;;;;;3567166;40;20725;-58
2021/04/02 01:42:11;;;;;;;2.13;0.70;;;8.10;69.30;;;;;;3565260;40;20092;-58
2021/04/02 01:44:40;;;;;;;0.80;0.80;;;8.10;68.70;;;;;;3571513;40;20075;-58
2021/04/02 01:47:08;;;;;;;1.80;0.88;;;8.00;68.50;;;;;;3572010;40;20937;-58
2021/04/02 01:49:36;;;;;;;1.00;0.60;;;8.00;69.40;;;;;;3565072;40;20060;-58
2021/04/02 01:52:03;;;;;;;2.70;0.93;;;7.90;69.20;;;;;;3565465;40;20202;-58
2021/04/02 01:54:30;;;;;;;1.98;1.02;;;7.90;69.20;;;;;;3565163;40;20058;-58
2021/04/02 01:56:57;;;;;;;0.98;0.77;;;7.80;70.30;;;;;;3566923;40;20964;-58
2021/04/02 01:59:27;;;;;;;1.45;0.80;;;7.80;69.80;;;;;;3572378;40;20050;-58
2021/04/02 02:01:54;;;;;;;1.30;0.90;;;7.70;69.80;;;;;;3566197;40;20065;-58
2021/04/02 02:04:23;;;;;;;3.00;1.02;;;7.70;70.20;;;;;;3572091;40;20057;-58
2021/04/02 02:06:53;;;;;;;4.22;1.17;;;7.60;69.60;;;;;;3566850;40;20072;-58
2021/04/02 02:09:28;;;;;;;2.85;1.23;;;7.60;69.30;;;;;;3571978;40;20091;-58
2021/04/02 02:12:00;;;;;;;2.97;0.90;;;7.50;70.20;;;;;;3571745;40;20065;-58
2021/04/02 02:14:36;;;;;;;4.95;1.27;;;7.40;70.80;;;;;;3571748;40;20067;-58
2021/04/02 02:17:12;;;;;;;1.40;1.02;;;7.40;71.10;;;;;;3572046;40;20464;-58
2021/04/02 02:19:40;;;;;;;2.38;1.13;;;7.40;70.20;;;;;;3572138;40;20166;-58
2021/04/02 02:22:10;;;;;;;4.18;1.40;;;7.30;70.60;;;;;;3573370;40;20147;-58
2021/04/02 02:24:43;;;;;;;;;;;7.20;71.00;;;;;;3563560;40;20128;-58
2021/04/02 02:27:09;;;;;;;1.87;0.90;;;7.20;71.10;;;;;;3565203;40;19929;-58
2021/04/02 02:29:37;;;;;;;2.45;1.27;;;7.10;71.40;;;;;;3564866;40;20057;-58
2021/04/02 02:32:04;;;;;;;3.80;1.00;;;7.10;72.00;;;;;;3565167;40;20396;-58
2021/04/02 02:34:33;;;;;;;3.75;1.30;;;7.00;71.90;;;;;;3572814;40;20056;-57
2021/04/02 02:37:02;;;;;;;1.70;1.40;;;6.90;72.70;;;;;;3567728;40;20073;-58
2021/04/02 02:39:34;;;;;;;2.50;1.02;;;6.90;72.90;;;;;;3570490;40;20061;-58
2021/04/02 02:42:05;;;;;;;2.72;1.27;;;6.90;72.70;;;;;;3574039;40;20171;-58
2021/04/02 02:44:31;;;;;;;1.58;1.10;;;6.90;71.90;;;;;;3572694;40;20089;-58
2021/04/02 02:47:03;;;;;;;2.50;1.08;;;6.80;72.30;;;;;;3572960;40;20088;-58
2021/04/02 02:49:32;;;;;;;1.50;1.13;;;6.70;73.30;;;;;;3574784;40;20060;-58
2021/04/02 02:51:59;;;;;;;2.17;1.30;;;6.70;73.50;;;;;;3574625;40;20152;-58
2021/04/02 02:54:31;;;;;;;4.10;1.50;;;6.70;73.40;;;;;;3574461;40;20071;-58
2021/04/02 02:56:59;;;;;;;4.68;1.80;;;6.70;73.40;;;;;;3572616;40;20072;-58
2021/04/02 02:59:28;;;;;;;2.40;1.15;;;6.70;73.30;;;;;;3572721;40;20069;-58
2021/04/02 03:01:55;;;;;;;1.85;1.40;;;6.70;73.00;;;;;;3570988;40;20179;-58
2021/04/02 03:04:25;;;;;;;2.20;1.30;;;6.60;73.20;;;;;;3564940;40;20191;-58
2021/04/02 03:06:53;;;;;;;3.85;1.60;;;6.60;73.80;;;;;;3570983;40;20054;-58
2021/04/02 03:09:23;;;;;;;2.17;1.30;;;6.60;74.00;;;;;;3570208;40;20067;-58
2021/04/02 03:11:50;;;;;;;2.72;1.65;;;6.50;73.90;;;;;;3555085;40;20095;-58
2021/04/02 03:14:19;;;;;;;2.95;1.75;;;6.50;73.50;;;;;;3570795;40;20690;-58
2021/04/02 03:16:48;;;;;;;4.07;2.05;;;6.40;73.70;;;;;;3564921;40;20076;-58
2021/04/02 03:19:19;;;;;;;2.67;1.63;;;6.30;73.20;;;;;;3563202;40;20061;-58
2021/04/02 03:21:48;;;;;;;2.28;1.73;;;6.30;73.80;;;;;;3564600;40;20408;-58
2021/04/02 03:24:24;;;;;;;6.63;2.17;;;6.20;74.30;;;;;;3572155;40;20799;-58
2021/04/02 03:26:54;;;;;;;4.47;1.70;;;6.20;74.80;;;;;;3565227;40;20418;-58
2021/04/02 03:29:22;;;;;;;2.85;1.88;;;6.10;75.10;;;;;;3565462;40;20334;-58
2021/04/02 03:32:03;;;;;;;1.90;1.52;;;6.20;75.40;;;;;;3563730;40;20182;-58
2021/04/02 03:34:31;;;;;;;3.35;1.63;;;6.10;74.50;;;;;;3565736;40;20050;-58
2021/04/02 03:37:00;;;;;;;2.42;1.90;;;6.00;75.00;;;;;;3571426;40;20158;-58
2021/04/02 03:39:29;;;;;;;2.70;1.80;;;6.00;74.90;;;;;;3572393;40;20073;-58
2021/04/02 03:42:02;;;;;;;3.13;1.90;;;6.00;75.40;;;;;;3569983;40;20174;-58
2021/04/02 03:44:34;;;;;;;3.63;1.80;;;5.90;75.50;;;;;;3563980;40;20069;-58
2021/04/02 03:47:04;;;;;;;2.95;1.73;;;5.70;74.80;;;;;;3567203;40;20820;-57
2021/04/02 03:49:35;;;;;;;3.70;1.95;;;5.70;75.60;;;;;;3572614;40;20434;-58
2021/04/02 03:52:06;;;;;;;3.83;1.95;;;5.60;76.10;;;;;;3568723;40;20069;-57
2021/04/02 03:54:35;;;;;;;3.42;1.75;;;5.50;76.40;;;;;;3576561;40;20334;-57
2021/04/02 03:57:05;;;;;;;6.03;2.22;;;5.40;76.30;;;;;;3568182;40;20080;-58
2021/04/02 03:59:34;;;;;;;2.97;1.90;;;5.40;76.20;;;;;;3568302;40;20084;-57
2021/04/02 04:02:00;;;;;;;4.18;2.03;;;5.30;76.30;;;;;;3567903;40;20167;-57
2021/04/02 04:04:30;;;;;;;4.38;2.25;;;5.20;76.50;;;;;;3571958;40;20050;-57
2021/04/02 04:07:01;;;;;;;2.75;1.90;;;5.10;77.00;;;;;;3570808;40;20406;-57
2021/04/02 04:09:29;;;;;;;2.45;1.92;;;5.10;77.20;;;;;;3572898;40;20134;-57
2021/04/02 04:12:09;;;;;;;3.25;2.20;;;5.00;77.50;;;;;;3571489;40;20079;-60
2021/04/02 04:14:48;;;;;;;5.53;1.83;;;4.90;77.80;;;;;;3569451;40;20920;-57
2021/04/02 04:17:20;;;;;;;3.88;2.10;;;4.90;78.50;;;;;;3569031;40;20174;-58
2021/04/02 04:19:50;;;;;;;3.60;2.25;;;4.80;78.40;;;;;;3568045;40;20115;-59
2021/04/02 04:22:23;;;;;;;5.30;2.20;;;4.80;78.50;;;;;;3569270;40;20182;-57
2021/04/02 04:24:53;;;;;;;4.32;1.85;;;4.70;77.80;;;;;;3572815;40;20608;-58
2021/04/02 04:27:19;;;;;;;3.33;2.00;;;4.70;78.70;;;;;;3572801;40;20898;-57
2021/04/02 04:29:50;;;;;;;3.13;1.80;;;4.70;78.90;;;;;;3571519;40;20063;-58
2021/04/02 04:32:19;;;;;;;3.58;1.80;;;4.60;79.00;;;;;;3571369;40;20178;-58
2021/04/02 04:34:47;;;;;;;5.10;2.10;;;4.60;78.90;;;;;;3570161;40;20823;-58
2021/04/02 04:37:14;;;;;;;6.38;2.58;;;4.60;78.70;;;;;;3570880;40;20061;-58
2021/04/02 04:39:43;;;;;;;4.15;2.08;;;4.50;79.10;;;;;;3570461;40;20067;-58
2021/04/02 04:42:11;;;;;;;4.45;2.05;;;4.50;79.50;;;;;;3571916;40;20065;-58
2021/04/02 04:44:40;;;;;;;2.95;2.33;;;4.50;79.80;;;;;;3573155;40;20572;-58
2021/04/02 04:47:06;;;;;;;3.28;2.05;;;4.50;79.80;;;;;;3572008;40;20065;-58
2021/04/02 04:49:32;;;;;;;2.95;2.33;;;4.60;79.60;;;;;;3572228;40;20068;-58
2021/04/02 04:52:00;;;;;;;7.43;2.45;;;4.60;79.50;;;;;;3572860;40;20452;-58
2021/04/02 04:54:28;;;;;;;5.90;2.28;;;4.60;79.90;;;;;;3571811;40;20065;-58
2021/04/02 04:56:57;;;;;;;9.20;2.67;;;4.60;80.20;;;;;;3573550;40;20053;-58
2021/04/02 04:59:23;;;;;;;5.28;3.10;;;4.60;80.50;;;;;;3571549;40;20163;-58
2021/04/02 05:01:51;;;;;;;4.50;2.40;;;4.60;80.50;;;;;;3570832;40;20065;-58
2021/04/02 05:04:18;;;;;;;3.60;2.58;;;4.70;80.60;;;;;;3571888;40;20178;-58
2021/04/02 05:06:46;;;;;;;3.63;2.10;;;4.70;80.10;;;;;;3571175;40;20188;-58
2021/04/02 05:09:14;;;;;;;6.65;2.67;;;4.80;80.50;;;;;;3570971;40;20058;-58
2021/04/02 05:11:43;;;;;;;6.32;3.00;;;4.90;80.60;;;;;;3570098;40;20064;-59
2021/04/02 05:14:10;;;;;;;4.03;2.58;;;5.00;80.20;;;;;;3570009;40;20159;-58
2021/04/02 05:16:37;;;;;;;4.25;2.50;;;5.10;79.70;;;;;;3571154;40;20425;-57
2021/04/02 05:19:04;;;;;;;6.38;2.75;;;5.20;79.20;;;;;;3569636;40;20713;-58
2021/04/02 05:21:30;;;;;;;6.22;2.50;;;5.30;79.10;;;;;;3569248;40;20065;-58
2021/04/02 05:23:55;;;;;;;4.88;2.70;;;5.40;79.00;;;;;;3569465;40;20057;-58
2021/04/02 05:26:21;;;;;;;5.25;3.08;;;5.50;78.70;;;;;;3570650;40;20794;-58
2021/04/02 05:28:49;;;;;;;7.03;3.72;;;5.60;79.00;;;;;;3570823;40;20164;-58
2021/04/02 05:31:15;;;;;;;4.50;2.47;;;5.70;78.80;;;;;;3569725;40;20815;-58
2021/04/02 05:33:40;;;;;;;5.15;2.90;;;5.80;79.30;;;;;;3573106;40;20165;-58
2021/04/02 05:36:06;;;;;;;5.97;3.95;;;6.00;79.20;;;;;;3573021;40;20057;-58
2021/04/02 05:38:32;;;;;;;7.53;3.53;;;6.10;79.00;;;;;;3572962;40;20148;-58
2021/04/02 05:41:04;;;;;;;6.60;3.67;;;6.20;78.60;;;;;;3571753;40;20144;-58
2021/04/02 05:43:50;;;;;;;8.45;4.28;;;6.30;78.40;;;;;;3568219;40;20162;-57
2021/04/02 05:46:16;;;;;;;6.40;3.92;;;6.50;78.20;;;;;;3569979;40;20057;-57
2021/04/02 05:48:46;;;;;;;8.73;3.80;;;6.60;77.80;;;;;;3572898;40;20060;-56
2021/04/02 05:51:12;;;;;;;6.05;4.03;;;6.70;77.40;;;;;;3570626;40;20053;-60
2021/04/02 05:53:39;;;;;;;6.80;3.78;;;6.80;77.00;;;;;;3573980;40;20166;-58
2021/04/02 05:56:05;;;;;;;5.60;3.45;;;6.80;76.00;;;;;;3570618;40;20057;-58
2021/04/02 05:58:31;;;;;;;6.18;3.60;;;6.90;76.10;;;;;;3571589;40;20501;-58
2021/04/02 06:00:58;;;;;;;7.00;3.15;;;6.90;76.40;;;;;;3569920;40;20140;-58
2021/04/02 06:03:25;;;;;;;6.57;3.38;;;7.10;75.60;;;;;;3572493;40;20317;-58
2021/04/02 06:05:50;;;;;;;6.07;3.50;;;7.30;75.20;;;;;;3572091;40;20174;-58
2021/04/02 06:08:18;;;;;;;6.38;4.00;;;7.40;73.60;;;;;;3570348;40;20061;-58
2021/04/02 06:10:43;;;;;;;5.85;3.75;;;7.50;74.00;;;;;;3568782;40;20053;-58
2021/04/02 06:13:10;;;;;;;4.47;3.47;;;7.60;74.10;;;;;;3572195;40;20358;-57
2021/04/02 06:15:35;;;;;;;5.63;4.00;;;7.70;73.20;;;;;;3571946;40;20088;-59
2021/04/02 06:18:12;;;;;;;6.38;3.92;;;7.70;72.10;;;;;;3572078;40;20463;-58
2021/04/02 06:20:44;;;;;;;6.35;4.03;;;7.70;73.50;;;;;;3571245;40;20672;-57
2021/04/02 06:23:15;;;;;;;4.53;3.28;;;7.80;72.80;;;;;;3568921;40;20064;-59
2021/04/02 06:25:52;;;;;;;6.55;3.40;;;7.80;72.70;;;;;;3568834;40;20402;-58
2021/04/02 06:28:27;;;;;;;5.72;3.58;;;7.80;73.10;;;;;;3569962;40;20064;-58
2021/04/02 06:31:04;;;;;;;5.60;3.60;;;7.90;72.30;;;;;;3568302;40;20776;-59
2021/04/02 06:33:32;;;;;;;;;;;7.90;71.80;;;;;;3571473;40;20155;-58
2021/04/02 06:35:59;;;;;;;8.07;4.40;;;8.00;72.20;;;;;;3569330;40;19944;-57
2021/04/02 06:38:32;;;;;;;5.70;3.45;;;8.00;71.00;;;;;;3568824;40;20086;-60
2021/04/02 06:41:03;;;;;;;9.05;3.85;;;8.10;71.20;;;;;;3566479;40;20071;-58
2021/04/02 06:43:41;;;;;;;6.28;4.20;;;8.10;71.10;;;;;;3564600;40;20072;-58
2021/04/02 06:46:12;;;;;;;6.03;3.58;;;8.10;70.20;;;;;;3569518;40;20525;-58
2021/04/02 06:48:38;;;;;;;6.28;3.78;;;8.20;71.00;;;;;;3571667;40;20170;-58
2021/04/02 06:51:14;;;;;;;8.40;4.10;;;8.40;70.50;;;;;;3569317;40;20862;-58
2021/04/02 06:53:43;;;;;;;5.68;3.88;;;8.50;69.90;;;;;;3571131;40;20181;-58
2021/04/02 06:56:10;;;;;;;6.50;3.72;;;8.70;69.50;;;;;;3572588;40;20133;-58
2021/04/02 06:58:40;;;;;;;5.50;4.00;;;8.80;69.10;;;;;;3570532;40;20413;-58
2021/04/02 07:01:07;;;;;;;5.72;3.88;;;8.90;67.20;;;;;;3569687;40;20057;-58
2021/04/02 07:03:34;;;;;;;7.00;4.28;;;8.60;67.90;;;;;;3568737;40;20823;-58
2021/04/02 07:06:01;;;;;;;7.00;4.25;;;8.50;69.10;;;;;;3569150;40;20061;-57
2021/04/02 07:08:28;;;;;;;5.68;3.78;;;8.50;70.00;;;;;;3570490;40;20554;-58
2021/04/02 07:10:57;;;;;;;6.78;4.38;;;8.60;69.30;;;;;;3568968;40;20075;-58
2021/04/02 07:13:35;;;;;;;5.65;3.75;;;8.60;68.30;;;;;;3561980;40;20437;-58
2021/04/02 07:16:03;;;;;;;7.18;4.45;;;8.50;69.00;;;;;;3570232;40;20421;-59
2021/04/02 07:18:29;;;;;;;7.80;4.22;;;8.30;69.10;;;;;;3566771;40;20086;-58
2021/04/02 07:20:55;;;;;;;6.95;4.35;;;8.30;70.40;;;;;;3566341;40;20076;-58
2021/04/02 07:23:21;;;;;;;5.45;4.00;;;8.30;70.10;;;;;;3568142;40;20431;-58
2021/04/02 07:25:48;;;;;;;5.72;4.20;;;8.20;69.60;;;;;;3569820;40;20664;-58
2021/04/02 07:28:14;;;;;;;5.32;3.80;;;8.10;71.00;;;;;;3569034;40;20076;-58
2021/04/02 07:30:43;;;;;;;5.20;3.83;;;8.10;70.80;;;;;;3568326;40;20062;-58
2021/04/02 07:33:11;;;;;;;5.13;3.80;;;8.20;69.70;;;;;;3568249;40;20066;-59
2021/04/02 07:35:38;;;;;;;5.20;3.80;;;8.20;69.90;;;;;;3568444;40;20060;-59
2021/04/02 07:38:07;;;;;;;5.25;3.63;;;8.20;69.60;;;;;;3569650;40;20754;-59
2021/04/02 07:40:34;;;;;;;5.60;4.18;;;8.30;69.90;;;;;;3568860;40;20057;-58
2021/04/02 07:43:05;;;;;;;7.38;4.68;;;8.30;70.00;;;;;;3566888;40;20140;-58
2021/04/02 07:45:33;;;;;;;4.55;3.72;;;8.20;70.10;;;;;;3569438;40;20052;-59
2021/04/02 07:48:13;;;;;;;6.07;4.28;;;8.20;70.20;;;;;;3569070;40;20049;-59
2021/04/02 07:50:44;;;;;;;7.05;4.05;;;8.30;70.10;;;;;;3568784;40;20130;-58
2021/04/02 07:53:25;;;;;;;5.30;3.75;;;8.20;69.80;;;;;;3568322;40;20073;-59
2021/04/02 07:56:15;;;;;;;8.32;4.57;;;8.20;69.80;;;;;;3568356;40;20053;-58
2021/04/02 07:58:47;;;;;;;5.32;3.75;;;8.30;69.70;;;;;;3568134;40;20073;-58
2021/04/02 08:01:15;;;;;;;7.45;4.47;;;8.40;70.10;;;;;;3568309;40;20113;-59
2021/04/02 08:03:43;;;;;;;5.82;3.90;;;8.30;70.70;;;;;;3567676;40;20053;-58
2021/04/02 08:06:11;;;;;;;9.20;6.25;;;8.40;70.80;;;;;;3568282;40;20052;-59
2021/04/02 08:08:45;;;;;;;7.75;5.82;;;8.50;70.20;;;;;;3567205;40;20057;-57
2021/04/02 08:11:26;;;;;;;5.70;3.95;;;8.50;70.30;;;;;;3567760;40;20085;-57
2021/04/02 08:14:09;;;;;;;6.72;4.38;;;8.60;69.90;;;;;;3566526;40;20068;-58
2021/04/02 08:16:52;;;;;;;8.90;5.68;;;8.60;69.00;;;;;;3568987;40;20067;-56
2021/04/02 08:19:21;;;;;;;7.18;5.72;;;8.70;69.20;;;;;;3568155;40;20391;-57
2021/04/02 08:21:50;;;;;;;6.97;5.35;;;8.90;69.10;;;;;;3567246;40;20056;-57
2021/04/02 08:24:17;;;;;;;6.25;3.95;;;9.00;68.40;;;;;;3568245;40;20080;-59
2021/04/02 08:26:44;;;;;;;4.28;3.58;;;9.10;67.60;;;;;;3568527;40;20071;-56
2021/04/02 08:29:12;;;;;;;10.13;4.32;;;9.20;67.40;;;;;;3567229;40;20092;-58
2021/04/02 08:31:44;;;;;;;7.03;5.47;;;9.30;67.00;;;;;;3567201;40;20167;-58
2021/04/02 08:34:13;;;;;;;4.57;3.67;;;9.40;66.60;;;;;;3568222;40;20163;-58
2021/04/02 08:36:39;;;;;;;5.85;4.65;;;9.40;66.80;;;;;;3568156;40;20146;-58
2021/04/02 08:39:06;;;;;;;5.75;3.80;;;9.40;66.20;;;;;;3556798;40;20174;-58
2021/04/02 08:41:32;;;;;;;6.82;4.40;;;9.40;66.20;;;;;;3567701;40;20377;-59
2021/04/02 08:43:58;;;;;;;4.57;3.95;;;9.40;66.10;;;;;;3567678;40;20079;-59
2021/04/02 08:46:44;;;;;;;3.90;3.20;;;9.40;65.40;;;;;;3568441;40;20042;-58
2021/04/02 08:49:12;;;;;;;7.68;4.65;;;9.40;66.00;;;;;;3568783;40;20061;-59
2021/04/02 08:51:38;;;;;;;5.65;3.90;;;9.50;65.90;;;;;;3567410;40;20064;-59
2021/04/02 08:54:10;;;;;;;4.18;3.35;;;9.60;64.90;;;;;;3570090;40;20060;-59
2021/04/02 08:56:36;;;;;;;5.68;4.13;;;9.70;64.70;;;;;;3569140;40;20065;-59
2021/04/02 08:59:07;;;;;;;5.38;3.85;;;9.90;65.30;;;;;;3566934;40;20084;-59
2021/04/02 09:01:33;;;;;;;5.68;3.55;;;10.00;64.70;;;;;;3571537;40;20084;-59
2021/04/02 09:03:59;;;;;;;6.53;3.72;;;10.20;64.50;;;;;;3570719;40;20816;-58
2021/04/02 09:06:25;;;;;;;5.32;4.00;;;10.30;63.80;;;;;;3570971;40;20151;-59
2021/04/02 09:08:50;;;;;;;7.68;5.90;;;10.20;63.50;;;;;;3570308;40;20049;-58
2021/04/02 09:11:16;;;;;;;7.60;4.85;;;10.30;63.20;;;;;;3570477;40;20103;-58
2021/04/02 09:13:44;;;;;;;4.43;2.92;;;10.40;63.70;;;;;;3571040;40;20409;-58
2021/04/02 09:16:14;;;;;;;5.95;3.20;;;10.40;62.40;;;;;;3570141;40;20304;-56
2021/04/02 09:18:56;;;;;;;3.88;3.00;;;10.60;62.40;;;;;;3569252;40;20100;-58
2021/04/02 09:21:23;;;;;;;4.22;3.28;;;10.50;63.80;;;;;;3569941;40;20554;-58
2021/04/02 09:23:54;;;;;;;6.85;4.03;;;10.70;63.20;;;;;;3567692;40;20836;-58
2021/04/02 09:26:21;;;;;;;5.25;3.25;;;10.90;62.60;;;;;;3568941;40;20061;-58
2021/04/02 09:28:47;;;;;;;4.20;3.50;;;10.90;62.20;;;;;;3569428;40;20068;-58
2021/04/02 09:31:19;;;;;;;5.68;3.50;;;11.20;61.90;;;;;;3568308;40;20100;-58
2021/04/02 09:33:56;;;;;;;4.78;3.65;;;11.70;60.60;;;;;;3568210;40;20057;-58
2021/04/02 09:36:25;;;;;;;3.85;3.30;;;12.10;58.50;;;;;;3569025;40;20316;-58
2021/04/02 09:38:51;;;;;;;5.55;3.10;;;12.50;57.80;;;;;;3568042;40;20065;-58
2021/04/02 09:41:23;;;;;;;5.03;3.35;;;12.80;57.30;;;;;;3568745;40;20510;-58
2021/04/02 09:43:53;;;;;;;4.82;3.55;;;12.70;56.20;;;;;;3568050;40;20096;-58
2021/04/02 09:46:29;;;;;;;4.72;3.13;;;12.60;55.70;;;;;;3564285;40;20430;-58
2021/04/02 09:49:04;;;;;;;7.03;4.63;;;12.80;56.30;;;;;;3571091;40;20107;-58
2021/04/02 09:51:31;;;;;;;5.18;3.55;;;13.20;57.00;;;;;;3572115;40;20065;-58
2021/04/02 09:53:56;;;;;;;6.53;3.90;;;13.70;55.00;;;;;;3568076;40;20166;-58
2021/04/02 09:56:22;;;;;;;5.57;4.40;;;14.10;53.80;;;;;;3568292;40;20935;-59
2021/04/02 09:58:48;;;;;;;7.95;6.35;;;14.60;53.00;;;;;;3564813;40;20176;-58
2021/04/02 10:01:14;;;;;;;7.72;4.82;;;15.20;51.10;;;;;;3567176;40;20064;-58
2021/04/02 10:03:39;;;;;;;9.38;7.15;;;16.00;47.90;;;;;;3568273;40;20064;-59
2021/04/02 10:06:05;;;;;;;6.50;4.45;;;16.30;47.10;;;;;;3567330;40;20490;-59
2021/04/02 10:08:31;;;;;;;9.93;6.95;;;16.10;47.80;;;;;;3568388;40;20079;-59
2021/04/02 10:10:57;;;;;;;12.05;8.57;;;15.60;48.90;;;;;;3571692;40;20123;-58
2021/04/02 10:13:22;;;;;;;6.90;4.63;;;15.60;48.50;;;;;;3569771;40;20375;-59
2021/04/02 10:15:48;;;;;;;4.97;3.63;;;16.10;47.30;;;;;;3568069;40;20057;-59
2021/04/02 10:18:15;;;;;;;5.57;3.75;;;16.30;45.80;;;;;;3570858;40;20849;-59
2021/04/02 10:20:41;;;;;;;8.48;6.40;;;16.40;45.70;;;;;;3570639;40;20057;-59
2021/04/02 10:23:07;;;;;;;6.40;4.13;;;16.90;44.90;;;;;;3569782;40;20678;-58
2021/04/02 10:25:33;;;;;;;5.47;3.10;;;17.50;43.60;;;;;;3568474;40;20441;-58
2021/04/02 10:27:58;;;;;;;4.60;2.83;;;17.50;41.20;;;;;;3568008;40;20068;-58
2021/04/02 10:30:24;;;;;;;3.30;2.55;;;17.10;43.50;;;;;;3569482;40;20943;-58
2021/04/02 10:32:50;;;;;;;1.63;1.52;;;16.60;43.90;;;;;;3566570;40;20060;-58
2021/04/02 10:35:16;;;;;;;2.80;2.50;;;15.70;43.10;;;;;;3565440;40;20065;-59
2021/04/02 10:37:41;;;;;;;2.75;2.30;;;15.00;46.50;;;;;;3571039;40;20147;-58
2021/04/02 10:40:08;;;;;;;3.30;2.72;;;14.30;46.60;;;;;;3568750;40;20164;-58
2021/04/02 10:42:33;;;;;;;3.92;2.22;;;14.00;49.80;;;;;;3573569;40;20072;-58
2021/04/02 10:44:59;;;;;;;2.50;1.90;;;13.80;49.00;;;;;;3572419;40;20401;-58
2021/04/02 10:47:25;;;;;;;2.97;2.30;;;13.60;49.40;;;;;;3570143;40;20072;-59
2021/04/02 10:49:50;;;;;;;2.67;1.92;;;13.40;50.00;;;;;;3566518;40;20966;-59
2021/04/02 10:52:16;;;;;;;5.13;2.28;;;13.30;49.90;;;;;;3566120;40;20815;-58
2021/04/02 10:54:42;;;;;;;3.55;2.22;;;13.10;52.30;;;;;;3568370;40;20057;-59
2021/04/02 10:57:08;;;;;;;3.08;1.95;;;13.00;52.10;;;;;;3571321;40;20837;-59
2021/04/02 10:59:34;;;;;;;2.30;1.50;;;12.90;51.30;;;;;;3572440;40;20752;-59
2021/04/02 11:02:00;;;;;;;1.60;1.38;;;12.90;50.60;;;;;;3567372;40;20073;-59
2021/04/02 11:04:25;;;;;;;1.63;1.42;;;12.90;50.40;;;;;;3569531;40;20135;-59
2021/04/02 11:06:51;;;;;;;3.15;1.83;;;12.70;49.90;;;;;;3573142;40;20059;-58
2021/04/02 11:09:17;;;;;;;4.38;1.60;;;12.70;51.70;;;;;;3570516;40;20064;-58
2021/04/02 11:11:42;;;;;;;2.58;1.42;;;12.50;50.00;;;;;;3570260;40;20101;-59
2021/04/02 11:14:08;;;;;;;2.10;1.58;;;12.50;52.20;;;;;;3569522;40;20101;-58
2021/04/02 11:16:34;;;;;;;2.17;1.30;;;12.30;50.60;;;;;;3574611;40;20071;-59
2021/04/02 11:18:59;;;;;;;2.80;1.30;;;12.40;50.30;;;;;;3573454;40;20061;-59
2021/04/02 11:21:25;;;;;;;2.13;1.10;;;12.40;51.40;;;;;;3568740;40;20733;-58
2021/04/02 11:23:51;;;;;;;3.53;1.27;;;12.50;50.00;;;;;;3569378;40;20057;-58
2021/04/02 11:26:17;;;;;;;1.73;1.15;;;12.50;50.80;;;;;;3574285;40;20077;-58
2021/04/02 11:28:42;;;;;;;1.75;1.30;;;12.70;49.80;;;;;;3574337;40;20081;-58
2021/04/02 11:31:08;;;;;;;3.47;1.13;;;12.60;48.60;;;;;;3575867;40;20060;-58
2021/04/02 11:33:34;;;;;;;1.27;1.05;;;12.70;48.40;;;;;;3575407;40;20494;-59
2021/04/02 11:36:00;;;;;;;2.13;1.23;;;12.80;48.70;;;;;;3572580;40;20053;-59
2021/04/02 11:38:26;;;;;;;3.10;0.90;;;12.90;48.10;;;;;;3570411;40;20073;-59
2021/04/02 11:40:52;;;;;;;1.15;0.98;;;12.90;47.70;;;;;;3574122;40;20045;-59
2021/04/02 11:43:18;;;;;;;0.80;0.80;;;13.10;49.80;;;;;;3574169;40;20065;-59
2021/04/02 11:45:44;;;;;;;1.92;0.88;;;13.20;47.20;;;;;;3574276;40;20064;-59
2021/04/02 11:48:10;;;;;;;2.80;1.33;;;13.30;47.60;;;;;;3576907;40;20080;-58
2021/04/02 11:50:36;;;;;;;1.90;1.23;;;13.40;46.00;;;;;;3573583;40;20088;-59
2021/04/02 11:53:01;;;;;;;2.50;1.20;;;13.50;46.90;;;;;;3573852;40;20060;-58
2021/04/02 11:55:27;;;;;;;2.25;1.20;;;13.50;47.00;;;;;;3575377;40;20072;-59
2021/04/02 11:57:53;;;;;;;1.83;1.00;;;13.60;46.40;;;;;;3575204;40;20065;-60
2021/04/02 12:00:19;;;;;;;1.15;0.82;;;13.50;46.40;;;;;;3573639;40;20064;-58
2021/04/02 12:02:45;;;;;;;1.17;0.80;;;13.50;46.50;;;;;;3573684;40;20069;-58
2021/04/02 12:05:11;;;;;;;1.77;0.75;;;13.60;46.40;;;;;;3571790;40;20072;-59
2021/04/02 12:07:37;;;;;;;0.63;0.57;;;13.60;45.90;;;;;;3570370;40;20377;-59
2021/04/02 12:10:04;;;;;;;1.55;0.75;;;13.70;46.40;;;;;;3572937;40;20084;-59
2021/04/02 12:12:30;;;;;;;1.50;0.75;;;13.90;45.10;;;;;;3568984;40;20179;-59
2021/04/02 12:14:56;;;;;;;1.48;0.75;;;13.80;45.50;;;;;;3569500;40;20375;-59
2021/04/02 12:17:21;;;;;;;0.73;0.60;;;13.80;45.30;;;;;;3572811;40;20060;-59
2021/04/02 12:19:47;;;;;;;1.95;0.57;;;13.70;44.30;;;;;;3574166;40;20095;-59
2021/04/02 12:22:13;;;;;;;1.23;0.57;;;13.70;43.70;;;;;;3572367;40;20084;-59
2021/04/02 12:24:38;;;;;;;0.60;0.50;;;13.70;46.30;;;;;;3572869;40;20058;-58
2021/04/02 12:27:05;;;;;;;1.92;0.52;;;13.70;43.90;;;;;;3571082;40;20061;-59
2021/04/02 12:29:32;;;;;;;0.57;0.57;;;13.80;45.30;;;;;;3569355;40;20077;-58
2021/04/02 12:31:57;;;;;;;0.95;0.70;;;13.90;44.70;;;;;;3572666;40;20423;-59
2021/04/02 12:34:24;;;;;;;0.52;0.52;;;13.90;44.80;;;;;;3574078;40;20092;-59
2021/04/02 12:36:50;;;;;;;0.98;0.60;;;13.90;44.00;;;;;;3576650;40;20072;-59
2021/04/02 12:39:16;;;;;;;1.02;0.70;;;14.10;45.70;;;;;;3576132;40;20075;-59
2021/04/02 12:41:41;;;;;;;1.15;0.70;;;14.10;43.60;;;;;;3572568;40;20108;-60
2021/04/02 12:44:07;;;;;;;3.05;0.73;;;14.10;45.60;;;;;;3575858;40;20171;-59
2021/04/02 12:46:33;;;;;;;6.47;0.80;;;14.10;42.40;;;;;;3576873;40;20992;-59
2021/04/02 12:48:58;;;;;;;2.38;0.63;;;14.20;43.30;;;;;;3573621;40;20068;-58
2021/04/02 12:51:24;;;;;;;0.95;0.85;;;14.20;42.70;;;;;;3572694;40;20076;-57
2021/04/02 12:53:50;;;;;;;1.10;0.70;;;14.40;43.00;;;;;;3574352;40;20084;-56
2021/04/02 12:56:15;;;;;;;1.50;1.00;;;14.50;44.70;;;;;;3570502;40;20258;-57
2021/04/02 12:58:41;;;;;;;2.17;1.08;;;14.70;44.80;;;;;;3573586;40;20065;-58
2021/04/02 13:01:07;;;;;;;1.42;0.82;;;14.90;44.00;;;;;;3576157;40;20085;-58